Andover, NJ

7:52 PM EDT on October 24, 2014 (GMT -0400)
Andover | Change Station
CLOSE
Current Station
Airport
Location: Andover,
Elevation: 581 ft
Nearby Weather Stations

Elev 581 ft 41.01 °N, 74.74 °W | Updated 58 minutes ago

Clear
Clear
60 °F
Feels Like 60 °F
N
6
Wind Variable Wind from NNW
Gusts 8 mph

Today
High -- | Low -- °F
--% Chance of Precip.
Yesterday
High -- | Low -- °F
Precip. -- in
7:20 AM 6:05 PM
New Moon, 1% visible
Pressure 29.83 in
Visibility -9999.0 miles
Clouds
Dew Point 39 °F
Humidity 46%
Rainfall 0.00 in
Snow Depth Not available.
UV Not available.
Pollen 1.70 out of 12
Air Quality Not available.
Flu Activity Sporadic
METAR K12N 242254Z AUTO 34005KT 16/04 A2983 RMK AO1 SLP100 T01560039

More Conditions Fewer Conditions

Pressure 29.83 in
Visibility -9999.0 miles
Clouds
Dew Point 39 °F
Humidity 46%
Rainfall 0.00 in
Snow Depth Not available.
UV Not available.
Pollen 1.70 out of 12
Air Quality Not available.
Flu Activity Sporadic
METAR K12N 242254Z AUTO 34005KT 16/04 A2983 RMK AO1 SLP100 T01560039

More Conditions Fewer Conditions

10-Day Weather Forecast

Almanac

Astronomy

Oct. 24, 2014 Rise Set
Actual Time 7:20 AM EDT 6:05 PM EDT
Civil Twilight 6:52 AM EDT 6:33 PM EDT
Nautical Twilight 6:20 AM EDT 7:05 PM EDT
Astronomical Twilight 5:48 AM EDT 7:37 PM EDT
Moon 7:57 AM EDT 6:43 PM EDT
Length of Visible Light 11h 40m
Length of Day
10h 44m
Tomorrow will be 2m 32s shorter.
New Moon, 1% of the Moon is Illuminated
Today
New Moon
Oct 30
First Quarter
Nov 6
Full
Nov 14
Last Quarter
Nov 22
New

Today's Extremes

State Highs State Lows

Community

WunderPhotos

Upload Photos

1,764,713 photos uploaded!

Nearby

Snow Depth

Station Depth Elevation
No new snow has been reported.

Earthquake Activity

City Distance Mag. Time & Date
No recent earthquake activity has been reported nearby.
Minimum magnitude displayed is 2.5.

Coastal Water Temperatures

Place Temperature
No Stations Reporting

Nearby Weather Stations